sensor_id;sensor_type;location;lat;lon;timestamp;temperature;humidity
11122;DHT22;5615;49.304;10.576;2024-02-23T00:00:51;8.10;99.90
11122;DHT22;5615;49.304;10.576;2024-02-23T00:03:20;8.00;99.90
11122;DHT22;5615;49.304;10.576;2024-02-23T00:05:47;8.00;99.90
11122;DHT22;5615;49.304;10.576;2024-02-23T00:08:14;7.90;99.90
11122;DHT22;5615;49.304;10.576;2024-02-23T00:10:41;7.80;99.90
11122;DHT22;5615;49.304;10.576;2024-02-23T00:13:08;7.70;99.90
11122;DHT22;5615;49.304;10.576;2024-02-23T00:15:38;7.60;99.90
11122;DHT22;5615;49.304;10.576;2024-02-23T00:18:13;7.50;99.90
11122;DHT22;5615;49.304;10.576;2024-02-23T00:20:51;7.40;99.90
11122;DHT22;5615;49.304;10.576;2024-02-23T00:23:22;7.30;99.90
11122;DHT22;5615;49.304;10.576;2024-02-23T00:25:49;7.30;99.90
11122;DHT22;5615;49.304;10.576;2024-02-23T00:28:15;7.20;99.90
11122;DHT22;5615;49.304;10.576;2024-02-23T00:30:42;7.10;99.90
11122;DHT22;5615;49.304;10.576;2024-02-23T00:33:12;7.00;99.90
11122;DHT22;5615;49.304;10.576;2024-02-23T00:35:39;6.80;99.90
11122;DHT22;5615;49.304;10.576;2024-02-23T00:38:09;6.50;99.90
11122;DHT22;5615;49.304;10.576;2024-02-23T00:40:35;6.50;99.90
11122;DHT22;5615;49.304;10.576;2024-02-23T00:43:02;6.30;99.90
11122;DHT22;5615;49.304;10.576;2024-02-23T00:45:29;6.30;99.90
11122;DHT22;5615;49.304;10.576;2024-02-23T00:47:56;6.20;99.90
11122;DHT22;5615;49.304;10.576;2024-02-23T00:50:23;6.30;99.90
11122;DHT22;5615;49.304;10.576;2024-02-23T00:52:54;6.20;99.90
11122;DHT22;5615;49.304;10.576;2024-02-23T00:55:22;6.20;99.90
11122;DHT22;5615;49.304;10.576;2024-02-23T00:57:52;6.20;99.90
11122;DHT22;5615;49.304;10.576;2024-02-23T01:00:24;6.20;99.90
11122;DHT22;5615;49.304;10.576;2024-02-23T01:02:51;6.20;99.90
11122;DHT22;5615;49.304;10.576;2024-02-23T01:05:20;6.20;99.90
11122;DHT22;5615;49.304;10.576;2024-02-23T01:07:47;6.10;99.90
11122;DHT22;5615;49.304;10.576;2024-02-23T01:10:14;6.20;99.90
11122;DHT22;5615;49.304;10.576;2024-02-23T01:12:42;6.10;99.90
11122;DHT22;5615;49.304;10.576;2024-02-23T01:15:09;6.10;99.90
11122;DHT22;5615;49.304;10.576;2024-02-23T01:17:39;6.10;99.90
11122;DHT22;5615;49.304;10.576;2024-02-23T01:20:06;6.10;99.90
11122;DHT22;5615;49.304;10.576;2024-02-23T01:22:33;6.10;99.90
11122;DHT22;5615;49.304;10.576;2024-02-23T01:25:03;6.10;99.90
11122;DHT22;5615;49.304;10.576;2024-02-23T01:27:30;6.10;99.90
11122;DHT22;5615;49.304;10.576;2024-02-23T01:30:00;6.10;99.90
11122;DHT22;5615;49.304;10.576;2024-02-23T01:32:27;6.10;99.90
11122;DHT22;5615;49.304;10.576;2024-02-23T01:34:56;6.10;99.90
11122;DHT22;5615;49.304;10.576;2024-02-23T01:37:23;6.00;99.90
11122;DHT22;5615;49.304;10.576;2024-02-23T01:39:50;6.00;99.90
11122;DHT22;5615;49.304;10.576;2024-02-23T01:42:17;6.00;99.90
11122;DHT22;5615;49.304;10.576;2024-02-23T01:44:43;6.00;99.90
11122;DHT22;5615;49.304;10.576;2024-02-23T01:47:11;6.10;99.90
11122;DHT22;5615;49.304;10.576;2024-02-23T01:49:38;6.00;99.90
11122;DHT22;5615;49.304;10.576;2024-02-23T01:52:06;6.00;99.90
11122;DHT22;5615;49.304;10.576;2024-02-23T01:54:33;6.00;99.90
11122;DHT22;5615;49.304;10.576;2024-02-23T01:57:01;6.00;99.90
11122;DHT22;5615;49.304;10.576;2024-02-23T01:59:29;6.00;99.90
11122;DHT22;5615;49.304;10.576;2024-02-23T02:01:57;6.00;99.90
11122;DHT22;5615;49.304;10.576;2024-02-23T02:04:26;5.90;99.90
11122;DHT22;5615;49.304;10.576;2024-02-23T02:06:55;5.90;99.90
11122;DHT22;5615;49.304;10.576;2024-02-23T02:09:22;5.80;99.90
11122;DHT22;5615;49.304;10.576;2024-02-23T02:11:50;5.90;99.90
11122;DHT22;5615;49.304;10.576;2024-02-23T02:14:17;5.80;99.90
11122;DHT22;5615;49.304;10.576;2024-02-23T02:16:45;5.80;99.90
11122;DHT22;5615;49.304;10.576;2024-02-23T02:19:12;5.80;99.90
11122;DHT22;5615;49.304;10.576;2024-02-23T02:21:44;5.80;99.90
11122;DHT22;5615;49.304;10.576;2024-02-23T02:24:11;5.80;99.90
11122;DHT22;5615;49.304;10.576;2024-02-23T02:26:38;5.70;99.90
11122;DHT22;5615;49.304;10.576;2024-02-23T02:29:05;5.80;99.90
11122;DHT22;5615;49.304;10.576;2024-02-23T02:31:33;5.70;99.90
11122;DHT22;5615;49.304;10.576;2024-02-23T02:34:04;5.70;99.90
11122;DHT22;5615;49.304;10.576;2024-02-23T02:36:30;5.70;99.90
11122;DHT22;5615;49.304;10.576;2024-02-23T02:38:59;5.70;99.90
11122;DHT22;5615;49.304;10.576;2024-02-23T02:41:29;5.60;99.90
11122;DHT22;5615;49.304;10.576;2024-02-23T02:43:56;5.60;99.90
11122;DHT22;5615;49.304;10.576;2024-02-23T02:46:22;5.60;99.90
11122;DHT22;5615;49.304;10.576;2024-02-23T02:48:52;5.70;99.90
11122;DHT22;5615;49.304;10.576;2024-02-23T02:51:19;5.60;99.90
11122;DHT22;5615;49.304;10.576;2024-02-23T02:53:47;5.60;99.90
11122;DHT22;5615;49.304;10.576;2024-02-23T02:56:16;5.50;99.90
11122;DHT22;5615;49.304;10.576;2024-02-23T02:58:45;5.50;99.90
11122;DHT22;5615;49.304;10.576;2024-02-23T03:01:17;5.40;99.90
11122;DHT22;5615;49.304;10.576;2024-02-23T03:03:46;5.40;99.90
11122;DHT22;5615;49.304;10.576;2024-02-23T03:06:15;5.40;99.90
11122;DHT22;5615;49.304;10.576;2024-02-23T03:08:44;5.40;99.90
11122;DHT22;5615;49.304;10.576;2024-02-23T03:11:10;5.30;99.90
11122;DHT22;5615;49.304;10.576;2024-02-23T03:13:42;5.40;99.90
11122;DHT22;5615;49.304;10.576;2024-02-23T03:16:14;5.40;99.90
11122;DHT22;5615;49.304;10.576;2024-02-23T03:18:41;5.40;99.90
11122;DHT22;5615;49.304;10.576;2024-02-23T03:21:08;5.40;99.90
11122;DHT22;5615;49.304;10.576;2024-02-23T03:23:37;5.40;99.90
11122;DHT22;5615;49.304;10.576;2024-02-23T03:26:06;5.30;99.90
11122;DHT22;5615;49.304;10.576;2024-02-23T03:28:33;5.30;99.90
11122;DHT22;5615;49.304;10.576;2024-02-23T03:31:03;5.30;99.90
11122;DHT22;5615;49.304;10.576;2024-02-23T03:33:29;5.20;99.90
11122;DHT22;5615;49.304;10.576;2024-02-23T03:35:58;5.30;99.90
11122;DHT22;5615;49.304;10.576;2024-02-23T03:38:28;5.30;99.90
11122;DHT22;5615;49.304;10.576;2024-02-23T03:40:56;5.20;99.90
11122;DHT22;5615;49.304;10.576;2024-02-23T03:43:23;5.20;99.90
11122;DHT22;5615;49.304;10.576;2024-02-23T03:45:50;5.10;99.90
11122;DHT22;5615;49.304;10.576;2024-02-23T03:48:18;5.20;99.90
11122;DHT22;5615;49.304;10.576;2024-02-23T03:50:45;5.20;99.90
11122;DHT22;5615;49.304;10.576;2024-02-23T03:53:14;5.20;99.90
11122;DHT22;5615;49.304;10.576;2024-02-23T03:55:40;5.10;99.90
11122;DHT22;5615;49.304;10.576;2024-02-23T03:58:10;5.10;99.90
11122;DHT22;5615;49.304;10.576;2024-02-23T04:00:38;5.00;99.90
11122;DHT22;5615;49.304;10.576;2024-02-23T04:03:05;5.00;99.90
11122;DHT22;5615;49.304;10.576;2024-02-23T04:05:36;5.00;99.90
11122;DHT22;5615;49.304;10.576;2024-02-23T04:08:05;5.10;99.90
11122;DHT22;5615;49.304;10.576;2024-02-23T04:10:32;5.10;99.90
11122;DHT22;5615;49.304;10.576;2024-02-23T04:13:00;5.00;99.90
11122;DHT22;5615;49.304;10.576;2024-02-23T04:15:27;5.00;99.90
11122;DHT22;5615;49.304;10.576;2024-02-23T04:17:53;4.90;99.90
11122;DHT22;5615;49.304;10.576;2024-02-23T04:20:22;5.00;99.90
11122;DHT22;5615;49.304;10.576;2024-02-23T04:22:52;5.00;99.90
11122;DHT22;5615;49.304;10.576;2024-02-23T04:25:22;5.00;99.90
11122;DHT22;5615;49.304;10.576;2024-02-23T04:27:48;4.90;99.90
11122;DHT22;5615;49.304;10.576;2024-02-23T04:30:15;4.90;99.90
11122;DHT22;5615;49.304;10.576;2024-02-23T04:32:42;4.90;99.90
11122;DHT22;5615;49.304;10.576;2024-02-23T04:35:10;4.90;99.90
11122;DHT22;5615;49.304;10.576;2024-02-23T04:37:37;4.80;99.90
11122;DHT22;5615;49.304;10.576;2024-02-23T04:40:07;4.80;99.90
11122;DHT22;5615;49.304;10.576;2024-02-23T04:42:34;4.80;99.90
11122;DHT22;5615;49.304;10.576;2024-02-23T04:45:00;4.80;99.90
11122;DHT22;5615;49.304;10.576;2024-02-23T04:47:30;4.70;99.90
11122;DHT22;5615;49.304;10.576;2024-02-23T04:49:59;4.80;99.90
11122;DHT22;5615;49.304;10.576;2024-02-23T04:52:26;4.70;99.90
11122;DHT22;5615;49.304;10.576;2024-02-23T04:54:53;4.70;99.90
11122;DHT22;5615;49.304;10.576;2024-02-23T04:57:21;4.70;99.90
11122;DHT22;5615;49.304;10.576;2024-02-23T04:59:48;4.70;99.90
11122;DHT22;5615;49.304;10.576;2024-02-23T05:02:16;4.70;99.90
11122;DHT22;5615;49.304;10.576;2024-02-23T05:04:42;4.70;99.90
11122;DHT22;5615;49.304;10.576;2024-02-23T05:07:10;4.60;99.90
11122;DHT22;5615;49.304;10.576;2024-02-23T05:09:41;4.70;99.90
11122;DHT22;5615;49.304;10.576;2024-02-23T05:12:08;4.60;99.90
11122;DHT22;5615;49.304;10.576;2024-02-23T05:14:39;4.60;99.90
11122;DHT22;5615;49.304;10.576;2024-02-23T05:17:21;4.60;99.90
11122;DHT22;5615;49.304;10.576;2024-02-23T05:19:48;4.60;99.90
11122;DHT22;5615;49.304;10.576;2024-02-23T05:22:15;4.60;99.90
11122;DHT22;5615;49.304;10.576;2024-02-23T05:24:42;4.60;99.90
11122;DHT22;5615;49.304;10.576;2024-02-23T05:27:10;4.50;99.90
11122;DHT22;5615;49.304;10.576;2024-02-23T05:29:41;4.50;99.90
11122;DHT22;5615;49.304;10.576;2024-02-23T05:32:21;4.50;99.90
11122;DHT22;5615;49.304;10.576;2024-02-23T05:34:50;4.50;99.90
11122;DHT22;5615;49.304;10.576;2024-02-23T05:37:19;4.40;99.90
11122;DHT22;5615;49.304;10.576;2024-02-23T05:39:47;4.40;99.90
11122;DHT22;5615;49.304;10.576;2024-02-23T05:42:17;4.40;99.90
11122;DHT22;5615;49.304;10.576;2024-02-23T05:44:52;4.40;99.90
11122;DHT22;5615;49.304;10.576;2024-02-23T05:47:19;4.30;99.90
11122;DHT22;5615;49.304;10.576;2024-02-23T05:49:49;4.30;99.90
11122;DHT22;5615;49.304;10.576;2024-02-23T05:52:17;4.30;99.90
11122;DHT22;5615;49.304;10.576;2024-02-23T05:54:45;4.40;99.90
11122;DHT22;5615;49.304;10.576;2024-02-23T05:57:21;4.40;99.90
11122;DHT22;5615;49.304;10.576;2024-02-23T05:59:56;4.30;99.90
11122;DHT22;5615;49.304;10.576;2024-02-23T06:02:23;4.20;99.90
11122;DHT22;5615;49.304;10.576;2024-02-23T06:04:52;4.20;99.90
11122;DHT22;5615;49.304;10.576;2024-02-23T06:07:20;4.20;99.90
11122;DHT22;5615;49.304;10.576;2024-02-23T06:09:54;4.30;99.90
11122;DHT22;5615;49.304;10.576;2024-02-23T06:12:21;4.30;99.90
11122;DHT22;5615;49.304;10.576;2024-02-23T06:14:50;4.30;99.90
11122;DHT22;5615;49.304;10.576;2024-02-23T06:17:18;4.30;99.90
11122;DHT22;5615;49.304;10.576;2024-02-23T06:19:45;4.30;99.90
11122;DHT22;5615;49.304;10.576;2024-02-23T06:22:12;4.30;99.90
11122;DHT22;5615;49.304;10.576;2024-02-23T06:24:43;4.40;99.90
11122;DHT22;5615;49.304;10.576;2024-02-23T06:27:10;4.40;99.90
11122;DHT22;5615;49.304;10.576;2024-02-23T06:29:36;4.40;99.90
11122;DHT22;5615;49.304;10.576;2024-02-23T06:32:07;4.40;99.90
11122;DHT22;5615;49.304;10.576;2024-02-23T06:34:37;4.40;99.90
11122;DHT22;5615;49.304;10.576;2024-02-23T06:37:06;4.30;99.90
11122;DHT22;5615;49.304;10.576;2024-02-23T06:39:33;4.30;99.90
11122;DHT22;5615;49.304;10.576;2024-02-23T06:42:00;4.40;99.90
11122;DHT22;5615;49.304;10.576;2024-02-23T06:44:30;4.40;99.90
11122;DHT22;5615;49.304;10.576;2024-02-23T06:46:57;4.40;99.90
11122;DHT22;5615;49.304;10.576;2024-02-23T06:49:24;4.40;99.90
11122;DHT22;5615;49.304;10.576;2024-02-23T06:51:52;4.40;99.90
11122;DHT22;5615;49.304;10.576;2024-02-23T06:54:31;4.50;99.90
11122;DHT22;5615;49.304;10.576;2024-02-23T06:56:59;4.50;99.90
11122;DHT22;5615;49.304;10.576;2024-02-23T06:59:27;4.50;99.90
11122;DHT22;5615;49.304;10.576;2024-02-23T07:01:54;4.60;99.90
11122;DHT22;5615;49.304;10.576;2024-02-23T07:04:21;4.60;99.90
11122;DHT22;5615;49.304;10.576;2024-02-23T07:06:48;4.60;99.90
11122;DHT22;5615;49.304;10.576;2024-02-23T07:09:17;4.60;99.90
11122;DHT22;5615;49.304;10.576;2024-02-23T07:11:44;4.50;99.90
11122;DHT22;5615;49.304;10.576;2024-02-23T07:14:14;4.60;99.90
11122;DHT22;5615;49.304;10.576;2024-02-23T07:16:42;4.50;99.90
11122;DHT22;5615;49.304;10.576;2024-02-23T07:19:09;4.50;99.90
11122;DHT22;5615;49.304;10.576;2024-02-23T07:21:36;4.50;99.90
11122;DHT22;5615;49.304;10.576;2024-02-23T07:24:12;4.50;99.90
11122;DHT22;5615;49.304;10.576;2024-02-23T07:26:42;4.60;99.90
11122;DHT22;5615;49.304;10.576;2024-02-23T07:29:09;4.60;99.90
11122;DHT22;5615;49.304;10.576;2024-02-23T07:31:39;4.70;99.90
11122;DHT22;5615;49.304;10.576;2024-02-23T07:34:09;4.70;99.90
11122;DHT22;5615;49.304;10.576;2024-02-23T07:36:36;4.70;99.90
11122;DHT22;5615;49.304;10.576;2024-02-23T07:39:05;4.70;99.90
11122;DHT22;5615;49.304;10.576;2024-02-23T07:41:32;4.80;99.90
11122;DHT22;5615;49.304;10.576;2024-02-23T07:44:01;4.80;99.90
11122;DHT22;5615;49.304;10.576;2024-02-23T07:46:27;4.80;99.90
11122;DHT22;5615;49.304;10.576;2024-02-23T07:48:55;4.80;99.90
11122;DHT22;5615;49.304;10.576;2024-02-23T07:51:22;4.80;99.90
11122;DHT22;5615;49.304;10.576;2024-02-23T07:53:50;4.80;99.90
11122;DHT22;5615;49.304;10.576;2024-02-23T07:56:17;4.80;99.90
11122;DHT22;5615;49.304;10.576;2024-02-23T07:58:44;4.80;99.90
11122;DHT22;5615;49.304;10.576;2024-02-23T08:01:16;4.90;99.90
11122;DHT22;5615;49.304;10.576;2024-02-23T08:03:43;4.90;99.90
11122;DHT22;5615;49.304;10.576;2024-02-23T08:06:10;5.00;99.90
11122;DHT22;5615;49.304;10.576;2024-02-23T08:08:38;5.00;99.90
11122;DHT22;5615;49.304;10.576;2024-02-23T08:11:05;5.10;99.90
11122;DHT22;5615;49.304;10.576;2024-02-23T08:13:39;5.10;99.90
11122;DHT22;5615;49.304;10.576;2024-02-23T08:16:07;5.10;99.90
11122;DHT22;5615;49.304;10.576;2024-02-23T08:18:35;5.00;99.90
11122;DHT22;5615;49.304;10.576;2024-02-23T08:21:03;5.10;99.90
11122;DHT22;5615;49.304;10.576;2024-02-23T08:26:07;5.10;99.90
11122;DHT22;5615;49.304;10.576;2024-02-23T08:28:54;5.10;99.90
11122;DHT22;5615;49.304;10.576;2024-02-23T08:31:22;5.10;99.90
11122;DHT22;5615;49.304;10.576;2024-02-23T08:34:04;5.00;99.90
11122;DHT22;5615;49.304;10.576;2024-02-23T08:39:06;5.00;99.90
11122;DHT22;5615;49.304;10.576;2024-02-23T08:41:35;5.00;99.90
11122;DHT22;5615;49.304;10.576;2024-02-23T08:44:17;5.00;99.90
11122;DHT22;5615;49.304;10.576;2024-02-23T08:46:44;5.10;99.90
11122;DHT22;5615;49.304;10.576;2024-02-23T08:49:12;5.00;99.90
11122;DHT22;5615;49.304;10.576;2024-02-23T08:51:39;5.10;99.90
11122;DHT22;5615;49.304;10.576;2024-02-23T08:54:08;5.20;99.90
11122;DHT22;5615;49.304;10.576;2024-02-23T08:56:37;5.20;99.90
11122;DHT22;5615;49.304;10.576;2024-02-23T08:59:05;5.30;99.90
11122;DHT22;5615;49.304;10.576;2024-02-23T09:01:32;5.30;99.90
11122;DHT22;5615;49.304;10.576;2024-02-23T09:03:59;5.30;99.90
11122;DHT22;5615;49.304;10.576;2024-02-23T09:06:27;5.30;99.90
11122;DHT22;5615;49.304;10.576;2024-02-23T09:08:56;5.40;99.90
11122;DHT22;5615;49.304;10.576;2024-02-23T09:11:23;5.40;99.90
11122;DHT22;5615;49.304;10.576;2024-02-23T09:13:50;5.30;99.90
11122;DHT22;5615;49.304;10.576;2024-02-23T09:16:17;5.40;99.90
11122;DHT22;5615;49.304;10.576;2024-02-23T09:18:50;5.40;99.90
11122;DHT22;5615;49.304;10.576;2024-02-23T09:21:17;5.50;99.90
11122;DHT22;5615;49.304;10.576;2024-02-23T09:23:48;5.30;99.90
11122;DHT22;5615;49.304;10.576;2024-02-23T09:26:16;5.40;99.90
11122;DHT22;5615;49.304;10.576;2024-02-23T09:28:48;5.50;99.90
11122;DHT22;5615;49.304;10.576;2024-02-23T09:31:17;5.60;99.90
11122;DHT22;5615;49.304;10.576;2024-02-23T09:33:45;5.70;99.90
11122;DHT22;5615;49.304;10.576;2024-02-23T09:36:23;5.80;99.90
11122;DHT22;5615;49.304;10.576;2024-02-23T09:38:53;5.60;99.90
11122;DHT22;5615;49.304;10.576;2024-02-23T09:41:23;5.50;99.90
11122;DHT22;5615;49.304;10.576;2024-02-23T09:43:51;5.60;99.90
11122;DHT22;5615;49.304;10.576;2024-02-23T09:46:19;5.60;99.90
11122;DHT22;5615;49.304;10.576;2024-02-23T09:48:48;5.70;99.90
11122;DHT22;5615;49.304;10.576;2024-02-23T09:51:34;5.70;99.90
11122;DHT22;5615;49.304;10.576;2024-02-23T09:54:07;5.60;99.90
11122;DHT22;5615;49.304;10.576;2024-02-23T09:56:34;5.50;99.90
11122;DHT22;5615;49.304;10.576;2024-02-23T09:59:04;5.60;99.90
11122;DHT22;5615;49.304;10.576;2024-02-23T10:01:32;5.70;99.90
11122;DHT22;5615;49.304;10.576;2024-02-23T10:04:00;5.90;99.90
11122;DHT22;5615;49.304;10.576;2024-02-23T10:06:30;6.00;99.90
11122;DHT22;5615;49.304;10.576;2024-02-23T10:08:57;6.10;99.90
11122;DHT22;5615;49.304;10.576;2024-02-23T10:11:26;6.10;99.90
11122;DHT22;5615;49.304;10.576;2024-02-23T10:13:53;6.30;99.90
11122;DHT22;5615;49.304;10.576;2024-02-23T10:16:22;6.20;99.90
11122;DHT22;5615;49.304;10.576;2024-02-23T10:18:49;6.20;99.90
11122;DHT22;5615;49.304;10.576;2024-02-23T10:21:18;6.30;99.90
11122;DHT22;5615;49.304;10.576;2024-02-23T10:23:48;6.50;99.90
11122;DHT22;5615;49.304;10.576;2024-02-23T10:26:17;6.50;99.90
11122;DHT22;5615;49.304;10.576;2024-02-23T10:28:49;6.40;99.90
11122;DHT22;5615;49.304;10.576;2024-02-23T10:31:17;6.40;99.90
11122;DHT22;5615;49.304;10.576;2024-02-23T10:33:45;6.30;99.90
11122;DHT22;5615;49.304;10.576;2024-02-23T10:36:30;6.40;99.90
11122;DHT22;5615;49.304;10.576;2024-02-23T10:39:02;6.70;99.90
11122;DHT22;5615;49.304;10.576;2024-02-23T10:41:35;6.70;99.90
11122;DHT22;5615;49.304;10.576;2024-02-23T10:44:06;6.60;99.90
11122;DHT22;5615;49.304;10.576;2024-02-23T10:46:37;6.20;99.90
11122;DHT22;5615;49.304;10.576;2024-02-23T10:49:20;6.30;99.90
11122;DHT22;5615;49.304;10.576;2024-02-23T10:51:52;6.50;99.90
11122;DHT22;5615;49.304;10.576;2024-02-23T10:54:20;6.60;99.90
11122;DHT22;5615;49.304;10.576;2024-02-23T10:56:49;6.50;99.90
11122;DHT22;5615;49.304;10.576;2024-02-23T10:59:19;6.50;99.90
11122;DHT22;5615;49.304;10.576;2024-02-23T11:01:50;6.30;99.90
11122;DHT22;5615;49.304;10.576;2024-02-23T11:04:20;6.40;99.90
11122;DHT22;5615;49.304;10.576;2024-02-23T11:06:51;6.50;99.90
11122;DHT22;5615;49.304;10.576;2024-02-23T11:09:22;6.50;99.90
11122;DHT22;5615;49.304;10.576;2024-02-23T11:11:55;6.30;99.90
11122;DHT22;5615;49.304;10.576;2024-02-23T11:14:35;6.20;99.90
11122;DHT22;5615;49.304;10.576;2024-02-23T11:17:03;6.30;99.90
11122;DHT22;5615;49.304;10.576;2024-02-23T11:19:34;6.20;99.90
11122;DHT22;5615;49.304;10.576;2024-02-23T11:22:33;6.20;99.90
11122;DHT22;5615;49.304;10.576;2024-02-23T11:25:03;6.20;99.90
11122;DHT22;5615;49.304;10.576;2024-02-23T11:27:33;6.20;99.90
11122;DHT22;5615;49.304;10.576;2024-02-23T11:30:12;6.30;99.90
11122;DHT22;5615;49.304;10.576;2024-02-23T11:32:44;6.40;99.90
11122;DHT22;5615;49.304;10.576;2024-02-23T11:35:14;6.50;99.90
11122;DHT22;5615;49.304;10.576;2024-02-23T11:37:49;6.70;99.90
11122;DHT22;5615;49.304;10.576;2024-02-23T11:40:22;6.50;99.90
11122;DHT22;5615;49.304;10.576;2024-02-23T11:42:51;6.40;99.90
11122;DHT22;5615;49.304;10.576;2024-02-23T11:45:21;6.50;99.90
11122;DHT22;5615;49.304;10.576;2024-02-23T11:47:48;6.50;99.90
11122;DHT22;5615;49.304;10.576;2024-02-23T11:50:15;6.60;99.90
11122;DHT22;5615;49.304;10.576;2024-02-23T11:52:48;6.60;99.90
11122;DHT22;5615;49.304;10.576;2024-02-23T11:55:31;6.80;99.90
11122;DHT22;5615;49.304;10.576;2024-02-23T11:57:59;6.80;99.90
11122;DHT22;5615;49.304;10.576;2024-02-23T12:00:28;6.70;99.90
11122;DHT22;5615;49.304;10.576;2024-02-23T12:02:58;6.60;99.90
11122;DHT22;5615;49.304;10.576;2024-02-23T12:05:43;6.80;99.90
11122;DHT22;5615;49.304;10.576;2024-02-23T12:08:56;6.80;99.90
11122;DHT22;5615;49.304;10.576;2024-02-23T12:11:32;6.70;99.90
11122;DHT22;5615;49.304;10.576;2024-02-23T12:14:17;6.80;99.90
11122;DHT22;5615;49.304;10.576;2024-02-23T12:17:02;6.70;99.90
11122;DHT22;5615;49.304;10.576;2024-02-23T12:19:38;6.80;99.90
11122;DHT22;5615;49.304;10.576;2024-02-23T12:22:11;6.70;99.90
11122;DHT22;5615;49.304;10.576;2024-02-23T12:25:19;6.70;99.90
11122;DHT22;5615;49.304;10.576;2024-02-23T12:28:08;6.70;99.90
11122;DHT22;5615;49.304;10.576;2024-02-23T12:30:36;6.70;99.90
11122;DHT22;5615;49.304;10.576;2024-02-23T12:33:18;6.90;99.90
11122;DHT22;5615;49.304;10.576;2024-02-23T12:39:16;6.70;99.90
11122;DHT22;5615;49.304;10.576;2024-02-23T12:41:45;6.70;99.90
11122;DHT22;5615;49.304;10.576;2024-02-23T12:44:13;6.70;99.90
11122;DHT22;5615;49.304;10.576;2024-02-23T12:46:51;6.60;99.90
11122;DHT22;5615;49.304;10.576;2024-02-23T12:52:30;6.40;99.90
11122;DHT22;5615;49.304;10.576;2024-02-23T12:55:22;6.30;99.90
11122;DHT22;5615;49.304;10.576;2024-02-23T12:58:28;6.40;99.90
11122;DHT22;5615;49.304;10.576;2024-02-23T13:00:59;6.40;99.90
11122;DHT22;5615;49.304;10.576;2024-02-23T13:03:26;6.50;99.90
11122;DHT22;5615;49.304;10.576;2024-02-23T13:05:56;6.60;99.90
11122;DHT22;5615;49.304;10.576;2024-02-23T13:08:24;6.70;99.90
11122;DHT22;5615;49.304;10.576;2024-02-23T13:10:54;6.80;99.90
11122;DHT22;5615;49.304;10.576;2024-02-23T13:13:42;6.80;99.90
11122;DHT22;5615;49.304;10.576;2024-02-23T13:16:29;7.00;99.90
11122;DHT22;5615;49.304;10.576;2024-02-23T13:19:09;6.90;99.90
11122;DHT22;5615;49.304;10.576;2024-02-23T13:21:53;7.00;99.90
11122;DHT22;5615;49.304;10.576;2024-02-23T13:24:36;7.20;99.90
11122;DHT22;5615;49.304;10.576;2024-02-23T13:27:33;7.00;99.90
11122;DHT22;5615;49.304;10.576;2024-02-23T13:30:02;6.90;99.90
11122;DHT22;5615;49.304;10.576;2024-02-23T13:32:30;6.80;99.90
11122;DHT22;5615;49.304;10.576;2024-02-23T13:35:06;7.10;99.90
11122;DHT22;5615;49.304;10.576;2024-02-23T13:44:32;7.10;99.90
11122;DHT22;5615;49.304;10.576;2024-02-23T13:46:59;7.10;99.90
11122;DHT22;5615;49.304;10.576;2024-02-23T13:49:27;6.90;99.90
11122;DHT22;5615;49.304;10.576;2024-02-23T13:51:57;6.90;99.90
11122;DHT22;5615;49.304;10.576;2024-02-23T13:54:34;7.00;99.90
11122;DHT22;5615;49.304;10.576;2024-02-23T13:57:02;7.10;99.90
11122;DHT22;5615;49.304;10.576;2024-02-23T13:59:31;7.10;99.90
11122;DHT22;5615;49.304;10.576;2024-02-23T14:01:58;7.40;99.90
11122;DHT22;5615;49.304;10.576;2024-02-23T14:04:25;7.40;99.90
11122;DHT22;5615;49.304;10.576;2024-02-23T14:06:52;7.30;99.90
11122;DHT22;5615;49.304;10.576;2024-02-23T14:09:19;7.00;99.90
11122;DHT22;5615;49.304;10.576;2024-02-23T14:11:46;7.10;99.90
11122;DHT22;5615;49.304;10.576;2024-02-23T14:17:37;7.20;99.90
11122;DHT22;5615;49.304;10.576;2024-02-23T14:20:05;7.40;99.90
11122;DHT22;5615;49.304;10.576;2024-02-23T14:22:33;7.30;99.90
11122;DHT22;5615;49.304;10.576;2024-02-23T14:25:04;7.60;99.90
11122;DHT22;5615;49.304;10.576;2024-02-23T14:27:46;7.50;99.90
11122;DHT22;5615;49.304;10.576;2024-02-23T14:30:14;7.50;99.90
11122;DHT22;5615;49.304;10.576;2024-02-23T14:33:16;7.30;99.90
11122;DHT22;5615;49.304;10.576;2024-02-23T14:35:44;7.40;99.90
11122;DHT22;5615;49.304;10.576;2024-02-23T14:38:12;7.20;99.90
11122;DHT22;5615;49.304;10.576;2024-02-23T14:40:46;7.10;99.90
11122;DHT22;5615;49.304;10.576;2024-02-23T14:43:28;7.20;99.90
11122;DHT22;5615;49.304;10.576;2024-02-23T14:46:10;7.00;99.90
11122;DHT22;5615;49.304;10.576;2024-02-23T14:49:10;7.10;99.90
11122;DHT22;5615;49.304;10.576;2024-02-23T14:51:44;7.10;99.90
11122;DHT22;5615;49.304;10.576;2024-02-23T14:54:17;7.00;99.90
11122;DHT22;5615;49.304;10.576;2024-02-23T14:56:53;7.00;99.90
11122;DHT22;5615;49.304;10.576;2024-02-23T14:59:27;7.00;99.90
11122;DHT22;5615;49.304;10.576;2024-02-23T15:01:55;6.90;99.90
11122;DHT22;5615;49.304;10.576;2024-02-23T15:04:27;6.80;99.90
11122;DHT22;5615;49.304;10.576;2024-02-23T15:06:55;6.80;99.90
11122;DHT22;5615;49.304;10.576;2024-02-23T15:09:24;6.80;99.90
11122;DHT22;5615;49.304;10.576;2024-02-23T15:11:51;6.70;99.90
11122;DHT22;5615;49.304;10.576;2024-02-23T15:14:18;6.80;99.90
11122;DHT22;5615;49.304;10.576;2024-02-23T15:16:45;6.70;99.90
11122;DHT22;5615;49.304;10.576;2024-02-23T15:19:13;6.80;99.90
11122;DHT22;5615;49.304;10.576;2024-02-23T15:22:17;6.70;99.90
11122;DHT22;5615;49.304;10.576;2024-02-23T15:24:47;6.60;99.90
11122;DHT22;5615;49.304;10.576;2024-02-23T15:27:15;6.50;99.90
11122;DHT22;5615;49.304;10.576;2024-02-23T15:29:42;6.50;99.90
11122;DHT22;5615;49.304;10.576;2024-02-23T15:32:17;6.50;99.90
11122;DHT22;5615;49.304;10.576;2024-02-23T15:34:56;6.50;99.90
11122;DHT22;5615;49.304;10.576;2024-02-23T15:37:25;6.40;99.90
11122;DHT22;5615;49.304;10.576;2024-02-23T15:40:06;6.30;99.90
11122;DHT22;5615;49.304;10.576;2024-02-23T15:42:35;6.40;99.90
11122;DHT22;5615;49.304;10.576;2024-02-23T15:45:08;6.50;99.90
11122;DHT22;5615;49.304;10.576;2024-02-23T15:47:54;6.40;99.90
11122;DHT22;5615;49.304;10.576;2024-02-23T15:50:31;6.30;99.90
11122;DHT22;5615;49.304;10.576;2024-02-23T15:53:20;6.40;99.90
11122;DHT22;5615;49.304;10.576;2024-02-23T15:55:51;6.30;99.90
11122;DHT22;5615;49.304;10.576;2024-02-23T15:58:19;6.30;99.90
11122;DHT22;5615;49.304;10.576;2024-02-23T16:00:46;6.30;99.90
11122;DHT22;5615;49.304;10.576;2024-02-23T16:03:15;6.30;99.90
11122;DHT22;5615;49.304;10.576;2024-02-23T16:05:42;6.40;99.90
11122;DHT22;5615;49.304;10.576;2024-02-23T16:08:09;6.30;99.90
11122;DHT22;5615;49.304;10.576;2024-02-23T16:10:42;6.20;99.90
11122;DHT22;5615;49.304;10.576;2024-02-23T16:13:12;6.20;99.90
11122;DHT22;5615;49.304;10.576;2024-02-23T16:15:38;6.30;99.90
11122;DHT22;5615;49.304;10.576;2024-02-23T16:18:05;6.30;99.90
11122;DHT22;5615;49.304;10.576;2024-02-23T16:20:33;6.20;99.90
11122;DHT22;5615;49.304;10.576;2024-02-23T16:23:01;6.30;99.90
11122;DHT22;5615;49.304;10.576;2024-02-23T16:25:29;7.40;99.90
11122;DHT22;5615;49.304;10.576;2024-02-23T16:28:03;8.70;99.90